sensor_id;sensor_type;location;lat;lon;timestamp;P1;durP1;ratioP1;P2;durP2;ratioP2
29384;SDS011;16367;48.736;9.218;2023-07-29T00:01:55;4.88;;;2.30;;
29384;SDS011;16367;48.736;9.218;2023-07-29T00:03:58;7.03;;;2.30;;
29384;SDS011;16367;48.736;9.218;2023-07-29T00:06:01;6.28;;;2.22;;
29384;SDS011;16367;48.736;9.218;2023-07-29T00:08:03;5.30;;;2.33;;
29384;SDS011;16367;48.736;9.218;2023-07-29T00:10:06;5.07;;;2.22;;
29384;SDS011;16367;48.736;9.218;2023-07-29T00:12:10;6.50;;;2.40;;
29384;SDS011;16367;48.736;9.218;2023-07-29T00:14:13;7.35;;;2.90;;
29384;SDS011;16367;48.736;9.218;2023-07-29T00:16:15;5.50;;;2.38;;
29384;SDS011;16367;48.736;9.218;2023-07-29T00:18:18;6.47;;;2.50;;
29384;SDS011;16367;48.736;9.218;2023-07-29T00:20:21;7.43;;;2.67;;
29384;SDS011;16367;48.736;9.218;2023-07-29T00:22:24;6.53;;;2.50;;
29384;SDS011;16367;48.736;9.218;2023-07-29T00:24:27;6.65;;;2.40;;
29384;SDS011;16367;48.736;9.218;2023-07-29T00:26:29;5.63;;;2.22;;
29384;SDS011;16367;48.736;9.218;2023-07-29T00:28:32;6.55;;;2.45;;
29384;SDS011;16367;48.736;9.218;2023-07-29T00:30:36;6.00;;;2.10;;
29384;SDS011;16367;48.736;9.218;2023-07-29T00:32:39;6.03;;;2.20;;
29384;SDS011;16367;48.736;9.218;2023-07-29T00:34:42;5.78;;;2.10;;
29384;SDS011;16367;48.736;9.218;2023-07-29T00:36:45;4.68;;;1.80;;
29384;SDS011;16367;48.736;9.218;2023-07-29T00:38:48;4.63;;;2.10;;
29384;SDS011;16367;48.736;9.218;2023-07-29T00:40:50;4.55;;;1.95;;
29384;SDS011;16367;48.736;9.218;2023-07-29T00:42:53;6.10;;;1.75;;
29384;SDS011;16367;48.736;9.218;2023-07-29T00:44:56;6.70;;;2.45;;
29384;SDS011;16367;48.736;9.218;2023-07-29T00:47:00;5.70;;;2.00;;
29384;SDS011;16367;48.736;9.218;2023-07-29T00:49:06;5.35;;;1.60;;
29384;SDS011;16367;48.736;9.218;2023-07-29T00:51:09;5.88;;;2.03;;
29384;SDS011;16367;48.736;9.218;2023-07-29T00:53:11;5.35;;;2.38;;
29384;SDS011;16367;48.736;9.218;2023-07-29T00:55:14;5.32;;;2.25;;
29384;SDS011;16367;48.736;9.218;2023-07-29T00:57:17;8.93;;;2.65;;
29384;SDS011;16367;48.736;9.218;2023-07-29T00:59:20;5.35;;;2.53;;
29384;SDS011;16367;48.736;9.218;2023-07-29T01:01:22;5.40;;;2.05;;
29384;SDS011;16367;48.736;9.218;2023-07-29T01:03:26;6.10;;;2.40;;
29384;SDS011;16367;48.736;9.218;2023-07-29T01:05:36;7.40;;;2.50;;
29384;SDS011;16367;48.736;9.218;2023-07-29T01:07:53;6.72;;;3.05;;
29384;SDS011;16367;48.736;9.218;2023-07-29T01:10:02;6.28;;;2.67;;
29384;SDS011;16367;48.736;9.218;2023-07-29T01:12:12;6.15;;;2.60;;
29384;SDS011;16367;48.736;9.218;2023-07-29T01:14:21;5.57;;;2.50;;
29384;SDS011;16367;48.736;9.218;2023-07-29T01:16:33;6.75;;;2.35;;
29384;SDS011;16367;48.736;9.218;2023-07-29T01:18:42;5.57;;;2.40;;
29384;SDS011;16367;48.736;9.218;2023-07-29T01:20:48;5.57;;;2.47;;
29384;SDS011;16367;48.736;9.218;2023-07-29T01:22:53;5.15;;;2.20;;
29384;SDS011;16367;48.736;9.218;2023-07-29T01:24:57;4.90;;;2.65;;
29384;SDS011;16367;48.736;9.218;2023-07-29T01:27:00;5.00;;;2.45;;
29384;SDS011;16367;48.736;9.218;2023-07-29T01:29:02;5.32;;;2.58;;
29384;SDS011;16367;48.736;9.218;2023-07-29T01:31:07;5.55;;;2.40;;
29384;SDS011;16367;48.736;9.218;2023-07-29T01:33:14;5.55;;;2.28;;
29384;SDS011;16367;48.736;9.218;2023-07-29T01:37:26;5.40;;;2.50;;
29384;SDS011;16367;48.736;9.218;2023-07-29T01:39:32;6.47;;;2.78;;
29384;SDS011;16367;48.736;9.218;2023-07-29T01:41:39;5.47;;;2.30;;
29384;SDS011;16367;48.736;9.218;2023-07-29T01:43:43;7.38;;;2.50;;
29384;SDS011;16367;48.736;9.218;2023-07-29T01:45:47;6.50;;;2.42;;
29384;SDS011;16367;48.736;9.218;2023-07-29T01:47:50;6.53;;;2.58;;
29384;SDS011;16367;48.736;9.218;2023-07-29T01:49:53;8.40;;;2.75;;
29384;SDS011;16367;48.736;9.218;2023-07-29T01:51:56;5.93;;;2.47;;
29384;SDS011;16367;48.736;9.218;2023-07-29T01:53:59;4.50;;;2.15;;
29384;SDS011;16367;48.736;9.218;2023-07-29T01:56:02;6.03;;;2.80;;
29384;SDS011;16367;48.736;9.218;2023-07-29T01:58:06;4.93;;;2.50;;
29384;SDS011;16367;48.736;9.218;2023-07-29T02:00:09;5.82;;;2.40;;
29384;SDS011;16367;48.736;9.218;2023-07-29T02:02:12;5.50;;;2.50;;
29384;SDS011;16367;48.736;9.218;2023-07-29T02:04:14;5.22;;;2.42;;
29384;SDS011;16367;48.736;9.218;2023-07-29T02:06:16;6.68;;;2.13;;
29384;SDS011;16367;48.736;9.218;2023-07-29T02:08:19;4.72;;;2.10;;
29384;SDS011;16367;48.736;9.218;2023-07-29T02:10:22;4.45;;;2.00;;
29384;SDS011;16367;48.736;9.218;2023-07-29T02:12:24;5.25;;;2.17;;
29384;SDS011;16367;48.736;9.218;2023-07-29T02:14:29;5.60;;;2.10;;
29384;SDS011;16367;48.736;9.218;2023-07-29T02:16:31;7.70;;;1.98;;
29384;SDS011;16367;48.736;9.218;2023-07-29T02:18:36;5.13;;;2.00;;
29384;SDS011;16367;48.736;9.218;2023-07-29T02:20:39;6.22;;;1.80;;
29384;SDS011;16367;48.736;9.218;2023-07-29T02:22:42;5.10;;;1.63;;
29384;SDS011;16367;48.736;9.218;2023-07-29T02:24:44;5.93;;;1.65;;
29384;SDS011;16367;48.736;9.218;2023-07-29T02:26:47;5.05;;;1.48;;
29384;SDS011;16367;48.736;9.218;2023-07-29T02:28:50;4.95;;;1.73;;
29384;SDS011;16367;48.736;9.218;2023-07-29T02:33:16;4.13;;;1.65;;
29384;SDS011;16367;48.736;9.218;2023-07-29T02:35:19;5.40;;;1.65;;
29384;SDS011;16367;48.736;9.218;2023-07-29T02:37:22;4.15;;;1.80;;
29384;SDS011;16367;48.736;9.218;2023-07-29T02:39:25;4.22;;;1.52;;
29384;SDS011;16367;48.736;9.218;2023-07-29T02:41:28;4.07;;;1.55;;
29384;SDS011;16367;48.736;9.218;2023-07-29T02:43:30;5.18;;;1.80;;
29384;SDS011;16367;48.736;9.218;2023-07-29T02:45:33;4.72;;;1.65;;
29384;SDS011;16367;48.736;9.218;2023-07-29T02:47:37;4.10;;;1.70;;
29384;SDS011;16367;48.736;9.218;2023-07-29T02:49:40;4.68;;;1.80;;
29384;SDS011;16367;48.736;9.218;2023-07-29T02:51:43;5.45;;;2.08;;
29384;SDS011;16367;48.736;9.218;2023-07-29T02:53:45;6.20;;;1.80;;
29384;SDS011;16367;48.736;9.218;2023-07-29T02:55:48;4.55;;;2.00;;
29384;SDS011;16367;48.736;9.218;2023-07-29T02:57:50;4.35;;;1.88;;
29384;SDS011;16367;48.736;9.218;2023-07-29T02:59:53;4.88;;;1.90;;
29384;SDS011;16367;48.736;9.218;2023-07-29T03:01:55;4.40;;;2.13;;
29384;SDS011;16367;48.736;9.218;2023-07-29T03:03:58;4.80;;;1.85;;
29384;SDS011;16367;48.736;9.218;2023-07-29T03:06:02;4.72;;;1.80;;
29384;SDS011;16367;48.736;9.218;2023-07-29T03:08:06;4.95;;;1.83;;
29384;SDS011;16367;48.736;9.218;2023-07-29T03:10:09;5.60;;;2.05;;
29384;SDS011;16367;48.736;9.218;2023-07-29T03:12:12;6.80;;;2.22;;
29384;SDS011;16367;48.736;9.218;2023-07-29T03:14:15;4.35;;;2.10;;
29384;SDS011;16367;48.736;9.218;2023-07-29T03:16:17;6.07;;;2.22;;
29384;SDS011;16367;48.736;9.218;2023-07-29T03:18:19;5.50;;;2.20;;
29384;SDS011;16367;48.736;9.218;2023-07-29T03:20:23;5.90;;;2.47;;
29384;SDS011;16367;48.736;9.218;2023-07-29T03:22:26;4.00;;;1.95;;
29384;SDS011;16367;48.736;9.218;2023-07-29T03:24:29;5.78;;;2.50;;
29384;SDS011;16367;48.736;9.218;2023-07-29T03:26:32;4.80;;;2.05;;
29384;SDS011;16367;48.736;9.218;2023-07-29T03:28:36;5.38;;;2.55;;
29384;SDS011;16367;48.736;9.218;2023-07-29T03:30:40;5.32;;;2.33;;
29384;SDS011;16367;48.736;9.218;2023-07-29T03:32:43;4.75;;;2.00;;
29384;SDS011;16367;48.736;9.218;2023-07-29T03:34:46;4.78;;;2.05;;
29384;SDS011;16367;48.736;9.218;2023-07-29T03:36:50;4.47;;;2.00;;
29384;SDS011;16367;48.736;9.218;2023-07-29T03:38:53;6.72;;;1.88;;
29384;SDS011;16367;48.736;9.218;2023-07-29T03:40:56;6.15;;;2.10;;
29384;SDS011;16367;48.736;9.218;2023-07-29T03:42:59;5.03;;;2.53;;
29384;SDS011;16367;48.736;9.218;2023-07-29T03:45:02;8.48;;;2.20;;
29384;SDS011;16367;48.736;9.218;2023-07-29T03:47:05;4.97;;;2.10;;
29384;SDS011;16367;48.736;9.218;2023-07-29T03:49:08;5.63;;;2.03;;
29384;SDS011;16367;48.736;9.218;2023-07-29T03:51:11;6.25;;;2.40;;
29384;SDS011;16367;48.736;9.218;2023-07-29T03:53:15;5.50;;;2.00;;
29384;SDS011;16367;48.736;9.218;2023-07-29T03:55:18;5.40;;;1.77;;
29384;SDS011;16367;48.736;9.218;2023-07-29T03:57:21;7.07;;;2.28;;
29384;SDS011;16367;48.736;9.218;2023-07-29T03:59:24;4.85;;;2.22;;
29384;SDS011;16367;48.736;9.218;2023-07-29T04:01:27;4.72;;;1.85;;
29384;SDS011;16367;48.736;9.218;2023-07-29T04:03:30;4.10;;;1.80;;
29384;SDS011;16367;48.736;9.218;2023-07-29T04:05:32;4.68;;;1.52;;
29384;SDS011;16367;48.736;9.218;2023-07-29T04:07:35;6.43;;;1.63;;
29384;SDS011;16367;48.736;9.218;2023-07-29T04:09:40;4.80;;;1.98;;
29384;SDS011;16367;48.736;9.218;2023-07-29T04:11:44;5.18;;;2.20;;
29384;SDS011;16367;48.736;9.218;2023-07-29T04:13:47;6.05;;;3.15;;
29384;SDS011;16367;48.736;9.218;2023-07-29T04:15:49;6.70;;;3.58;;
29384;SDS011;16367;48.736;9.218;2023-07-29T04:17:52;5.05;;;2.05;;
29384;SDS011;16367;48.736;9.218;2023-07-29T04:19:55;5.65;;;1.75;;
29384;SDS011;16367;48.736;9.218;2023-07-29T04:21:58;4.28;;;1.70;;
29384;SDS011;16367;48.736;9.218;2023-07-29T04:24:00;5.93;;;1.92;;
29384;SDS011;16367;48.736;9.218;2023-07-29T04:26:05;5.30;;;1.98;;
29384;SDS011;16367;48.736;9.218;2023-07-29T04:28:07;5.30;;;2.05;;
29384;SDS011;16367;48.736;9.218;2023-07-29T04:30:10;6.00;;;2.15;;
29384;SDS011;16367;48.736;9.218;2023-07-29T04:32:13;4.20;;;1.60;;
29384;SDS011;16367;48.736;9.218;2023-07-29T04:34:16;4.30;;;1.58;;
29384;SDS011;16367;48.736;9.218;2023-07-29T04:36:18;4.25;;;1.40;;
29384;SDS011;16367;48.736;9.218;2023-07-29T04:38:21;4.22;;;1.60;;
29384;SDS011;16367;48.736;9.218;2023-07-29T04:40:24;5.35;;;1.70;;
29384;SDS011;16367;48.736;9.218;2023-07-29T04:42:27;4.93;;;1.75;;
29384;SDS011;16367;48.736;9.218;2023-07-29T04:44:29;6.00;;;1.92;;
29384;SDS011;16367;48.736;9.218;2023-07-29T04:46:32;5.78;;;1.75;;
29384;SDS011;16367;48.736;9.218;2023-07-29T04:48:36;4.38;;;1.55;;
29384;SDS011;16367;48.736;9.218;2023-07-29T04:50:38;5.60;;;2.35;;
29384;SDS011;16367;48.736;9.218;2023-07-29T04:52:41;8.10;;;2.25;;
29384;SDS011;16367;48.736;9.218;2023-07-29T04:54:44;6.18;;;2.45;;
29384;SDS011;16367;48.736;9.218;2023-07-29T04:56:46;4.53;;;1.90;;
29384;SDS011;16367;48.736;9.218;2023-07-29T04:58:50;9.23;;;3.00;;
29384;SDS011;16367;48.736;9.218;2023-07-29T05:00:53;7.93;;;1.90;;
29384;SDS011;16367;48.736;9.218;2023-07-29T05:02:56;4.93;;;1.92;;
29384;SDS011;16367;48.736;9.218;2023-07-29T05:04:59;4.97;;;1.70;;
29384;SDS011;16367;48.736;9.218;2023-07-29T05:07:03;7.55;;;1.70;;
29384;SDS011;16367;48.736;9.218;2023-07-29T05:09:12;5.32;;;1.80;;
29384;SDS011;16367;48.736;9.218;2023-07-29T05:11:16;5.40;;;2.20;;
29384;SDS011;16367;48.736;9.218;2023-07-29T05:13:19;5.25;;;1.65;;
29384;SDS011;16367;48.736;9.218;2023-07-29T05:15:24;4.75;;;1.67;;
29384;SDS011;16367;48.736;9.218;2023-07-29T05:17:26;4.50;;;1.92;;
29384;SDS011;16367;48.736;9.218;2023-07-29T05:19:29;5.05;;;1.67;;
29384;SDS011;16367;48.736;9.218;2023-07-29T05:21:32;5.47;;;1.92;;
29384;SDS011;16367;48.736;9.218;2023-07-29T05:23:35;4.65;;;1.88;;
29384;SDS011;16367;48.736;9.218;2023-07-29T05:25:37;4.50;;;1.83;;
29384;SDS011;16367;48.736;9.218;2023-07-29T05:27:39;5.95;;;2.03;;
29384;SDS011;16367;48.736;9.218;2023-07-29T05:29:42;7.43;;;2.05;;
29384;SDS011;16367;48.736;9.218;2023-07-29T05:31:46;5.35;;;2.03;;
29384;SDS011;16367;48.736;9.218;2023-07-29T05:33:49;5.63;;;2.05;;
29384;SDS011;16367;48.736;9.218;2023-07-29T05:35:51;6.22;;;2.15;;
29384;SDS011;16367;48.736;9.218;2023-07-29T05:37:54;6.40;;;2.00;;
29384;SDS011;16367;48.736;9.218;2023-07-29T05:39:57;4.30;;;1.70;;
29384;SDS011;16367;48.736;9.218;2023-07-29T05:41:59;4.53;;;1.80;;
29384;SDS011;16367;48.736;9.218;2023-07-29T05:44:03;4.45;;;1.80;;
29384;SDS011;16367;48.736;9.218;2023-07-29T05:46:10;5.65;;;1.83;;
29384;SDS011;16367;48.736;9.218;2023-07-29T05:48:14;4.85;;;1.88;;
29384;SDS011;16367;48.736;9.218;2023-07-29T05:50:16;7.75;;;2.05;;
29384;SDS011;16367;48.736;9.218;2023-07-29T05:52:19;4.90;;;2.30;;
29384;SDS011;16367;48.736;9.218;2023-07-29T05:54:22;4.55;;;2.00;;
29384;SDS011;16367;48.736;9.218;2023-07-29T05:56:24;5.13;;;1.77;;
29384;SDS011;16367;48.736;9.218;2023-07-29T05:58:27;7.20;;;1.95;;
29384;SDS011;16367;48.736;9.218;2023-07-29T06:00:32;5.15;;;1.65;;
29384;SDS011;16367;48.736;9.218;2023-07-29T06:02:35;7.78;;;2.15;;
29384;SDS011;16367;48.736;9.218;2023-07-29T06:04:39;5.30;;;2.05;;
29384;SDS011;16367;48.736;9.218;2023-07-29T06:06:42;6.28;;;2.00;;
29384;SDS011;16367;48.736;9.218;2023-07-29T06:08:45;6.00;;;1.90;;
29384;SDS011;16367;48.736;9.218;2023-07-29T06:10:47;6.25;;;2.08;;
29384;SDS011;16367;48.736;9.218;2023-07-29T06:12:50;4.53;;;1.80;;
29384;SDS011;16367;48.736;9.218;2023-07-29T06:14:53;5.53;;;1.98;;
29384;SDS011;16367;48.736;9.218;2023-07-29T06:16:55;5.38;;;2.10;;
29384;SDS011;16367;48.736;9.218;2023-07-29T06:18:57;4.03;;;1.60;;
29384;SDS011;16367;48.736;9.218;2023-07-29T06:21:01;5.10;;;1.63;;
29384;SDS011;16367;48.736;9.218;2023-07-29T06:23:08;5.93;;;1.70;;
29384;SDS011;16367;48.736;9.218;2023-07-29T06:25:11;4.65;;;1.50;;
29384;SDS011;16367;48.736;9.218;2023-07-29T06:27:14;4.32;;;1.30;;
29384;SDS011;16367;48.736;9.218;2023-07-29T06:29:17;4.30;;;1.45;;
29384;SDS011;16367;48.736;9.218;2023-07-29T06:31:19;3.83;;;1.40;;
29384;SDS011;16367;48.736;9.218;2023-07-29T06:33:22;5.40;;;1.60;;
29384;SDS011;16367;48.736;9.218;2023-07-29T06:35:25;4.55;;;1.75;;
29384;SDS011;16367;48.736;9.218;2023-07-29T06:37:29;7.85;;;1.80;;
29384;SDS011;16367;48.736;9.218;2023-07-29T06:39:32;3.95;;;1.50;;
29384;SDS011;16367;48.736;9.218;2023-07-29T06:41:35;3.45;;;1.48;;
29384;SDS011;16367;48.736;9.218;2023-07-29T06:43:38;4.18;;;1.60;;
29384;SDS011;16367;48.736;9.218;2023-07-29T06:45:40;4.45;;;1.80;;
29384;SDS011;16367;48.736;9.218;2023-07-29T06:47:44;5.30;;;1.60;;
29384;SDS011;16367;48.736;9.218;2023-07-29T06:49:47;4.32;;;1.80;;
29384;SDS011;16367;48.736;9.218;2023-07-29T06:51:50;5.28;;;1.63;;
29384;SDS011;16367;48.736;9.218;2023-07-29T06:53:54;5.82;;;1.92;;
29384;SDS011;16367;48.736;9.218;2023-07-29T06:55:57;5.25;;;1.65;;
29384;SDS011;16367;48.736;9.218;2023-07-29T06:58:00;5.75;;;2.00;;
29384;SDS011;16367;48.736;9.218;2023-07-29T07:00:03;5.03;;;1.90;;
29384;SDS011;16367;48.736;9.218;2023-07-29T07:02:07;5.70;;;1.80;;
29384;SDS011;16367;48.736;9.218;2023-07-29T07:04:10;5.38;;;2.13;;
29384;SDS011;16367;48.736;9.218;2023-07-29T07:06:12;6.20;;;1.98;;
29384;SDS011;16367;48.736;9.218;2023-07-29T07:08:15;5.13;;;1.98;;
29384;SDS011;16367;48.736;9.218;2023-07-29T07:10:19;5.25;;;2.42;;
29384;SDS011;16367;48.736;9.218;2023-07-29T07:12:22;5.70;;;2.20;;
29384;SDS011;16367;48.736;9.218;2023-07-29T07:14:25;6.03;;;2.05;;
29384;SDS011;16367;48.736;9.218;2023-07-29T07:16:28;5.53;;;1.80;;
29384;SDS011;16367;48.736;9.218;2023-07-29T07:18:31;6.10;;;2.25;;
29384;SDS011;16367;48.736;9.218;2023-07-29T07:20:34;4.13;;;1.63;;
29384;SDS011;16367;48.736;9.218;2023-07-29T07:22:38;5.10;;;1.85;;
29384;SDS011;16367;48.736;9.218;2023-07-29T07:24:40;5.00;;;2.08;;
29384;SDS011;16367;48.736;9.218;2023-07-29T07:26:44;6.07;;;2.00;;
29384;SDS011;16367;48.736;9.218;2023-07-29T07:28:47;4.82;;;2.17;;
29384;SDS011;16367;48.736;9.218;2023-07-29T07:30:49;5.40;;;2.25;;
29384;SDS011;16367;48.736;9.218;2023-07-29T07:32:52;5.30;;;2.22;;
29384;SDS011;16367;48.736;9.218;2023-07-29T07:34:55;9.00;;;2.30;;
29384;SDS011;16367;48.736;9.218;2023-07-29T07:36:58;5.93;;;1.98;;
29384;SDS011;16367;48.736;9.218;2023-07-29T07:39:01;7.43;;;1.92;;
29384;SDS011;16367;48.736;9.218;2023-07-29T07:41:04;5.53;;;2.20;;
29384;SDS011;16367;48.736;9.218;2023-07-29T07:43:08;5.35;;;1.98;;
29384;SDS011;16367;48.736;9.218;2023-07-29T07:45:11;4.75;;;1.95;;
29384;SDS011;16367;48.736;9.218;2023-07-29T07:47:14;5.43;;;1.90;;
29384;SDS011;16367;48.736;9.218;2023-07-29T07:49:16;6.68;;;1.73;;
29384;SDS011;16367;48.736;9.218;2023-07-29T07:51:19;5.32;;;2.03;;
29384;SDS011;16367;48.736;9.218;2023-07-29T07:53:22;4.80;;;1.67;;
29384;SDS011;16367;48.736;9.218;2023-07-29T07:55:26;3.90;;;1.52;;
29384;SDS011;16367;48.736;9.218;2023-07-29T07:57:29;4.32;;;1.67;;
29384;SDS011;16367;48.736;9.218;2023-07-29T07:59:33;5.25;;;1.63;;
29384;SDS011;16367;48.736;9.218;2023-07-29T08:01:38;3.97;;;1.20;;
29384;SDS011;16367;48.736;9.218;2023-07-29T08:03:40;3.97;;;1.30;;
29384;SDS011;16367;48.736;9.218;2023-07-29T08:05:43;3.55;;;1.30;;
29384;SDS011;16367;48.736;9.218;2023-07-29T08:07:46;5.85;;;1.50;;
29384;SDS011;16367;48.736;9.218;2023-07-29T08:09:49;5.05;;;1.40;;
29384;SDS011;16367;48.736;9.218;2023-07-29T08:11:51;3.63;;;1.27;;
29384;SDS011;16367;48.736;9.218;2023-07-29T08:13:54;6.15;;;1.85;;
29384;SDS011;16367;48.736;9.218;2023-07-29T08:15:58;9.20;;;1.60;;
29384;SDS011;16367;48.736;9.218;2023-07-29T08:18:01;5.40;;;1.25;;
29384;SDS011;16367;48.736;9.218;2023-07-29T08:20:04;5.03;;;1.23;;
29384;SDS011;16367;48.736;9.218;2023-07-29T08:22:07;3.85;;;1.42;;
29384;SDS011;16367;48.736;9.218;2023-07-29T08:24:10;6.15;;;1.92;;
29384;SDS011;16367;48.736;9.218;2023-07-29T08:26:13;4.85;;;1.50;;
29384;SDS011;16367;48.736;9.218;2023-07-29T08:28:16;3.60;;;1.45;;
29384;SDS011;16367;48.736;9.218;2023-07-29T08:30:18;4.53;;;1.60;;
29384;SDS011;16367;48.736;9.218;2023-07-29T08:32:23;4.57;;;1.52;;
29384;SDS011;16367;48.736;9.218;2023-07-29T08:34:26;4.65;;;1.45;;
29384;SDS011;16367;48.736;9.218;2023-07-29T08:36:29;5.22;;;1.65;;
29384;SDS011;16367;48.736;9.218;2023-07-29T08:38:32;5.10;;;1.65;;
29384;SDS011;16367;48.736;9.218;2023-07-29T08:40:35;3.60;;;1.30;;
29384;SDS011;16367;48.736;9.218;2023-07-29T08:42:43;4.97;;;1.50;;
29384;SDS011;16367;48.736;9.218;2023-07-29T08:44:49;4.40;;;1.65;;
29384;SDS011;16367;48.736;9.218;2023-07-29T08:46:56;3.70;;;1.65;;
29384;SDS011;16367;48.736;9.218;2023-07-29T08:49:00;4.78;;;1.60;;
29384;SDS011;16367;48.736;9.218;2023-07-29T08:51:04;4.65;;;1.45;;
29384;SDS011;16367;48.736;9.218;2023-07-29T08:53:08;5.15;;;2.28;;
29384;SDS011;16367;48.736;9.218;2023-07-29T08:55:11;4.10;;;1.40;;
29384;SDS011;16367;48.736;9.218;2023-07-29T08:57:14;4.97;;;1.60;;
29384;SDS011;16367;48.736;9.218;2023-07-29T08:59:17;4.25;;;1.45;;
29384;SDS011;16367;48.736;9.218;2023-07-29T09:01:21;4.82;;;1.52;;
29384;SDS011;16367;48.736;9.218;2023-07-29T09:03:24;4.45;;;1.50;;
29384;SDS011;16367;48.736;9.218;2023-07-29T09:05:28;4.78;;;1.73;;
29384;SDS011;16367;48.736;9.218;2023-07-29T09:07:31;4.18;;;1.70;;
29384;SDS011;16367;48.736;9.218;2023-07-29T09:09:39;5.97;;;1.80;;
29384;SDS011;16367;48.736;9.218;2023-07-29T09:11:42;6.75;;;1.90;;
29384;SDS011;16367;48.736;9.218;2023-07-29T09:13:46;5.25;;;1.80;;
29384;SDS011;16367;48.736;9.218;2023-07-29T09:15:47;4.85;;;1.60;;
29384;SDS011;16367;48.736;9.218;2023-07-29T09:17:50;4.65;;;1.50;;
29384;SDS011;16367;48.736;9.218;2023-07-29T09:19:53;4.32;;;1.65;;
29384;SDS011;16367;48.736;9.218;2023-07-29T09:21:57;4.70;;;1.50;;
29384;SDS011;16367;48.736;9.218;2023-07-29T09:24:02;3.53;;;1.23;;
29384;SDS011;16367;48.736;9.218;2023-07-29T09:26:05;3.80;;;1.50;;
29384;SDS011;16367;48.736;9.218;2023-07-29T09:28:09;5.45;;;1.80;;
29384;SDS011;16367;48.736;9.218;2023-07-29T09:30:15;5.35;;;1.40;;
29384;SDS011;16367;48.736;9.218;2023-07-29T09:32:17;5.43;;;1.42;;
29384;SDS011;16367;48.736;9.218;2023-07-29T09:34:21;3.95;;;1.27;;
29384;SDS011;16367;48.736;9.218;2023-07-29T09:36:24;3.05;;;1.20;;
29384;SDS011;16367;48.736;9.218;2023-07-29T09:38:29;4.55;;;1.40;;
29384;SDS011;16367;48.736;9.218;2023-07-29T09:40:35;3.80;;;1.30;;
29384;SDS011;16367;48.736;9.218;2023-07-29T09:42:39;5.03;;;1.42;;
29384;SDS011;16367;48.736;9.218;2023-07-29T09:44:41;3.22;;;1.10;;
29384;SDS011;16367;48.736;9.218;2023-07-29T09:46:45;4.50;;;1.35;;
29384;SDS011;16367;48.736;9.218;2023-07-29T09:48:48;4.00;;;1.25;;
29384;SDS011;16367;48.736;9.218;2023-07-29T09:50:52;3.88;;;1.50;;
29384;SDS011;16367;48.736;9.218;2023-07-29T09:52:54;3.35;;;1.30;;
29384;SDS011;16367;48.736;9.218;2023-07-29T09:55:01;4.40;;;1.20;;
29384;SDS011;16367;48.736;9.218;2023-07-29T09:57:04;4.50;;;1.33;;
29384;SDS011;16367;48.736;9.218;2023-07-29T09:59:10;3.60;;;1.40;;
29384;SDS011;16367;48.736;9.218;2023-07-29T10:01:13;4.05;;;1.30;;
29384;SDS011;16367;48.736;9.218;2023-07-29T10:03:16;4.80;;;1.30;;
29384;SDS011;16367;48.736;9.218;2023-07-29T10:05:21;4.43;;;1.40;;
29384;SDS011;16367;48.736;9.218;2023-07-29T10:07:25;3.15;;;1.13;;
29384;SDS011;16367;48.736;9.218;2023-07-29T10:09:28;3.60;;;1.40;;
29384;SDS011;16367;48.736;9.218;2023-07-29T10:11:32;3.50;;;1.10;;
29384;SDS011;16367;48.736;9.218;2023-07-29T10:13:37;4.13;;;1.25;;
29384;SDS011;16367;48.736;9.218;2023-07-29T10:15:40;3.65;;;1.30;;
29384;SDS011;16367;48.736;9.218;2023-07-29T10:17:44;3.70;;;1.40;;
29384;SDS011;16367;48.736;9.218;2023-07-29T10:21:53;4.13;;;1.30;;
29384;SDS011;16367;48.736;9.218;2023-07-29T10:24:01;3.60;;;1.30;;
29384;SDS011;16367;48.736;9.218;2023-07-29T10:26:09;3.25;;;1.33;;
29384;SDS011;16367;48.736;9.218;2023-07-29T10:30:20;3.55;;;1.38;;
29384;SDS011;16367;48.736;9.218;2023-07-29T10:32:23;4.75;;;1.50;;
29384;SDS011;16367;48.736;9.218;2023-07-29T10:34:29;5.55;;;1.70;;
29384;SDS011;16367;48.736;9.218;2023-07-29T10:36:32;3.30;;;1.20;;
29384;SDS011;16367;48.736;9.218;2023-07-29T10:38:35;3.45;;;1.48;;
29384;SDS011;16367;48.736;9.218;2023-07-29T10:40:45;4.00;;;1.35;;
29384;SDS011;16367;48.736;9.218;2023-07-29T10:42:59;3.63;;;1.45;;
29384;SDS011;16367;48.736;9.218;2023-07-29T10:45:18;5.75;;;1.40;;
29384;SDS011;16367;48.736;9.218;2023-07-29T10:49:26;3.63;;;1.13;;
29384;SDS011;16367;48.736;9.218;2023-07-29T10:51:34;4.35;;;1.35;;
29384;SDS011;16367;48.736;9.218;2023-07-29T10:53:38;4.38;;;1.30;;
29384;SDS011;16367;48.736;9.218;2023-07-29T10:55:41;3.85;;;1.42;;
29384;SDS011;16367;48.736;9.218;2023-07-29T10:57:46;3.50;;;1.20;;
29384;SDS011;16367;48.736;9.218;2023-07-29T10:59:53;4.07;;;1.67;;
29384;SDS011;16367;48.736;9.218;2023-07-29T11:01:58;3.92;;;1.50;;
29384;SDS011;16367;48.736;9.218;2023-07-29T11:06:26;3.90;;;1.27;;
29384;SDS011;16367;48.736;9.218;2023-07-29T11:08:30;5.95;;;1.65;;
29384;SDS011;16367;48.736;9.218;2023-07-29T11:10:42;3.70;;;1.33;;
29384;SDS011;16367;48.736;9.218;2023-07-29T11:12:45;3.30;;;1.30;;
29384;SDS011;16367;48.736;9.218;2023-07-29T11:14:49;4.53;;;1.30;;
29384;SDS011;16367;48.736;9.218;2023-07-29T11:16:51;4.43;;;1.35;;
29384;SDS011;16367;48.736;9.218;2023-07-29T11:18:57;3.72;;;1.20;;
29384;SDS011;16367;48.736;9.218;2023-07-29T11:21:02;4.75;;;1.33;;
29384;SDS011;16367;48.736;9.218;2023-07-29T11:23:06;5.50;;;1.42;;
29384;SDS011;16367;48.736;9.218;2023-07-29T11:25:09;3.65;;;1.50;;
29384;SDS011;16367;48.736;9.218;2023-07-29T11:27:13;4.05;;;1.40;;
29384;SDS011;16367;48.736;9.218;2023-07-29T11:29:16;3.90;;;1.33;;
29384;SDS011;16367;48.736;9.218;2023-07-29T11:31:19;3.33;;;1.50;;
29384;SDS011;16367;48.736;9.218;2023-07-29T11:33:22;4.88;;;1.38;;
29384;SDS011;16367;48.736;9.218;2023-07-29T11:35:27;3.95;;;1.45;;
29384;SDS011;16367;48.736;9.218;2023-07-29T11:37:30;5.05;;;1.40;;
29384;SDS011;16367;48.736;9.218;2023-07-29T11:39:39;5.75;;;1.48;;
29384;SDS011;16367;48.736;9.218;2023-07-29T11:41:42;3.90;;;1.40;;
29384;SDS011;16367;48.736;9.218;2023-07-29T11:43:45;4.20;;;1.60;;
29384;SDS011;16367;48.736;9.218;2023-07-29T11:45:48;4.75;;;1.40;;
29384;SDS011;16367;48.736;9.218;2023-07-29T11:47:52;4.13;;;1.63;;
29384;SDS011;16367;48.736;9.218;2023-07-29T11:49:58;3.55;;;1.38;;
29384;SDS011;16367;48.736;9.218;2023-07-29T11:52:04;3.78;;;1.40;;
29384;SDS011;16367;48.736;9.218;2023-07-29T11:54:08;3.72;;;1.50;;
29384;SDS011;16367;48.736;9.218;2023-07-29T11:56:11;4.03;;;1.52;;
29384;SDS011;16367;48.736;9.218;2023-07-29T11:58:14;3.72;;;1.23;;
29384;SDS011;16367;48.736;9.218;2023-07-29T12:00:18;3.65;;;1.27;;
29384;SDS011;16367;48.736;9.218;2023-07-29T12:02:21;3.83;;;1.38;;
29384;SDS011;16367;48.736;9.218;2023-07-29T12:04:25;5.35;;;1.50;;
29384;SDS011;16367;48.736;9.218;2023-07-29T12:06:28;3.85;;;1.50;;
29384;SDS011;16367;48.736;9.218;2023-07-29T12:08:33;5.15;;;1.50;;
29384;SDS011;16367;48.736;9.218;2023-07-29T12:10:37;4.13;;;1.50;;
29384;SDS011;16367;48.736;9.218;2023-07-29T12:12:46;5.18;;;1.90;;
29384;SDS011;16367;48.736;9.218;2023-07-29T12:14:50;4.50;;;1.33;;
29384;SDS011;16367;48.736;9.218;2023-07-29T12:16:52;3.80;;;1.40;;
29384;SDS011;16367;48.736;9.218;2023-07-29T12:18:55;3.88;;;1.23;;
29384;SDS011;16367;48.736;9.218;2023-07-29T12:20:58;3.35;;;1.10;;
29384;SDS011;16367;48.736;9.218;2023-07-29T12:23:01;3.50;;;1.35;;
29384;SDS011;16367;48.736;9.218;2023-07-29T12:25:05;4.40;;;1.60;;
29384;SDS011;16367;48.736;9.218;2023-07-29T12:27:10;3.88;;;1.50;;
29384;SDS011;16367;48.736;9.218;2023-07-29T12:29:14;3.45;;;1.35;;
29384;SDS011;16367;48.736;9.218;2023-07-29T12:31:20;3.60;;;1.40;;
29384;SDS011;16367;48.736;9.218;2023-07-29T12:33:29;3.80;;;1.45;;
29384;SDS011;16367;48.736;9.218;2023-07-29T12:35:36;4.05;;;1.50;;
29384;SDS011;16367;48.736;9.218;2023-07-29T12:37:39;4.43;;;1.52;;
29384;SDS011;16367;48.736;9.218;2023-07-29T12:39:44;4.90;;;1.40;;